createdAt,value
2023-02-13T00:02:11.051Z,6.11
2023-02-13T00:05:38.750Z,6.05
2023-02-13T00:09:07.125Z,5.99
2023-02-13T00:12:36.059Z,5.98
2023-02-13T00:16:05.213Z,5.95
2023-02-13T00:19:32.320Z,5.97
2023-02-13T00:22:59.678Z,5.97
2023-02-13T00:26:26.570Z,6.00
2023-02-13T00:29:53.586Z,6.02
2023-02-13T00:33:20.931Z,6.07
2023-02-13T00:36:47.753Z,6.13
2023-02-13T00:40:16.761Z,6.17
2023-02-13T00:43:43.534Z,6.22
2023-02-13T00:47:15.297Z,6.25
2023-02-13T00:50:42.800Z,6.25
2023-02-13T00:54:11.248Z,6.25
2023-02-13T00:57:38.006Z,6.21
2023-02-13T01:01:04.945Z,6.15
2023-02-13T01:04:32.728Z,6.12
2023-02-13T01:07:59.839Z,6.08
2023-02-13T01:11:26.474Z,6.03
2023-02-13T01:14:53.685Z,5.98
2023-02-13T01:18:22.673Z,5.95
2023-02-13T01:21:49.425Z,5.90
2023-02-13T01:25:18.942Z,5.89
2023-02-13T01:28:46.150Z,5.90
2023-02-13T01:32:13.253Z,5.92
2023-02-13T01:35:42.145Z,5.93
2023-02-13T01:39:13.170Z,5.97
2023-02-13T01:42:40.516Z,6.01
2023-02-13T01:46:07.820Z,6.06
2023-02-13T01:49:35.444Z,6.09
2023-02-13T01:53:08.373Z,6.11
2023-02-13T01:56:39.376Z,6.14
2023-02-13T02:00:13.598Z,6.14
2023-02-13T02:03:51.524Z,6.15
2023-02-13T02:07:25.216Z,6.14
2023-02-13T02:10:52.282Z,6.12
2023-02-13T02:14:19.182Z,6.08
2023-02-13T02:17:46.698Z,6.07
2023-02-13T02:21:52.840Z,6.03
2023-02-13T02:25:37.521Z,6.00
2023-02-13T02:29:28.035Z,5.98
2023-02-13T02:33:10.256Z,5.95
2023-02-13T02:37:00.540Z,5.96
2023-02-13T02:40:37.793Z,6.00
2023-02-13T02:44:17.032Z,6.02
2023-02-13T02:48:11.755Z,6.07
2023-02-13T02:51:46.907Z,6.12
2023-02-13T02:55:29.471Z,6.15
2023-02-13T02:59:20.422Z,6.19
2023-02-13T03:03:05.166Z,6.19
2023-02-13T03:06:38.384Z,6.18
2023-02-13T03:10:22.665Z,6.15
2023-02-13T03:13:51.954Z,6.07
2023-02-13T03:17:37.876Z,6.04
2023-02-13T03:21:35.619Z,6.00
2023-02-13T03:25:09.242Z,5.96
2023-02-13T03:29:00.817Z,5.92
2023-02-13T03:32:37.650Z,5.92
2023-02-13T03:36:32.813Z,5.93
2023-02-13T03:40:08.793Z,5.94
2023-02-13T03:43:41.990Z,5.96
2023-02-13T03:47:11.585Z,5.99
2023-02-13T03:50:44.648Z,6.04
2023-02-13T03:54:18.880Z,6.08
2023-02-13T03:58:06.492Z,6.10
2023-02-13T04:01:36.405Z,6.10
2023-02-13T04:05:11.000Z,6.09
2023-02-13T04:08:38.369Z,6.08
2023-02-13T04:12:15.829Z,6.06
2023-02-13T04:15:48.635Z,6.02
2023-02-13T04:19:17.428Z,5.96
2023-02-13T04:22:47.684Z,5.93
2023-02-13T04:26:20.989Z,5.91
2023-02-13T04:29:47.886Z,5.90
2023-02-13T04:33:14.211Z,5.91
2023-02-13T04:36:40.968Z,5.95
2023-02-13T04:40:09.104Z,5.98
2023-02-13T04:43:36.153Z,6.03
2023-02-13T04:47:03.092Z,6.09
2023-02-13T04:50:29.785Z,6.13
2023-02-13T04:53:56.389Z,6.17
2023-02-13T04:57:23.408Z,6.20
2023-02-13T05:00:49.949Z,6.23
2023-02-13T05:04:17.837Z,6.22
2023-02-13T05:07:45.620Z,6.18
2023-02-13T05:11:12.443Z,6.13
2023-02-13T05:14:39.101Z,6.10
2023-02-13T05:18:06.637Z,6.06
2023-02-13T05:21:50.664Z,6.03
2023-02-13T05:25:17.644Z,6.00
2023-02-13T05:29:01.840Z,5.96
2023-02-13T05:32:29.044Z,5.92
2023-02-13T05:35:55.941Z,5.89
2023-02-13T05:39:23.206Z,5.89
2023-02-13T05:42:50.022Z,5.90
2023-02-13T05:46:17.041Z,5.92
2023-02-13T05:49:44.009Z,5.94
2023-02-13T05:53:10.794Z,5.97
2023-02-13T05:56:38.071Z,6.00
2023-02-13T06:00:06.697Z,6.01
2023-02-13T06:03:35.082Z,6.03
2023-02-13T06:07:02.614Z,6.05
2023-02-13T06:10:29.133Z,6.03
2023-02-13T06:13:55.468Z,6.00
2023-02-13T06:17:22.659Z,5.99
2023-02-13T06:20:50.024Z,5.91
2023-02-13T06:24:17.165Z,5.86
2023-02-13T06:27:43.756Z,5.81
2023-02-13T06:31:11.450Z,5.79
2023-02-13T06:34:38.540Z,5.78
2023-02-13T06:38:06.008Z,5.76
2023-02-13T06:41:33.857Z,5.76
2023-02-13T06:45:01.244Z,5.77
2023-02-13T06:48:28.801Z,5.80
2023-02-13T06:51:55.934Z,5.79
2023-02-13T06:55:23.014Z,5.82
2023-02-13T06:58:49.534Z,5.86
2023-02-13T07:02:16.821Z,5.89
2023-02-13T07:05:45.153Z,5.94
2023-02-13T07:09:13.799Z,5.98
2023-02-13T07:12:40.899Z,5.97
2023-02-13T07:16:08.419Z,5.96
2023-02-13T07:19:36.021Z,5.98
2023-02-13T07:23:03.545Z,5.99
2023-02-13T07:26:30.042Z,5.97
2023-02-13T07:29:57.996Z,5.94
2023-02-13T07:33:25.688Z,5.92
2023-02-13T07:36:52.520Z,5.90
2023-02-13T07:40:19.570Z,5.90
2023-02-13T07:43:46.957Z,5.91
2023-02-13T07:47:14.161Z,5.93
2023-02-13T07:50:40.664Z,5.95
2023-02-13T07:54:07.530Z,6.00
2023-02-13T07:57:34.907Z,6.04
2023-02-13T08:01:06.820Z,6.08
2023-02-13T08:04:34.037Z,6.12
2023-02-13T08:08:01.399Z,6.17
2023-02-13T08:11:54.604Z,6.20
2023-02-13T08:15:25.513Z,6.21
2023-02-13T08:18:52.483Z,6.20
2023-02-13T08:22:19.351Z,6.22
2023-02-13T08:25:48.072Z,6.21
2023-02-13T08:29:15.225Z,6.17
2023-02-13T08:32:53.803Z,6.15
2023-02-13T08:36:21.868Z,6.13
2023-02-13T08:39:49.396Z,6.11
2023-02-13T08:43:16.568Z,6.11
2023-02-13T08:46:43.055Z,6.15
2023-02-13T08:50:11.605Z,6.19
2023-02-13T08:53:39.009Z,6.25
2023-02-13T08:57:05.856Z,6.30
2023-02-13T09:00:32.722Z,6.35
2023-02-13T09:03:59.823Z,6.41
2023-02-13T09:07:27.133Z,6.46
2023-02-13T09:10:59.866Z,6.51
2023-02-13T09:14:26.659Z,6.55
2023-02-13T09:17:53.931Z,6.58
2023-02-13T09:21:22.984Z,6.57
2023-02-13T09:24:49.825Z,6.58
2023-02-13T09:28:16.908Z,6.56
2023-02-13T09:31:44.959Z,6.55
2023-02-13T09:35:15.296Z,6.57
2023-02-13T09:38:44.373Z,6.58
2023-02-13T09:42:21.120Z,6.58
2023-02-13T09:45:51.725Z,6.58
2023-02-13T09:49:22.667Z,6.60
2023-02-13T09:52:55.208Z,6.62
2023-02-13T09:56:39.270Z,6.65
2023-02-13T10:00:14.795Z,6.72
2023-02-13T10:03:51.668Z,6.80
2023-02-13T10:07:28.321Z,6.90
2023-02-13T10:11:02.754Z,6.97
2023-02-13T10:14:37.179Z,7.02
2023-02-13T10:18:12.534Z,7.07
2023-02-13T10:21:49.343Z,7.10
2023-02-13T10:25:27.124Z,7.08
2023-02-13T10:29:17.515Z,7.08
2023-02-13T10:32:52.324Z,7.07
2023-02-13T10:36:24.529Z,7.05
2023-02-13T10:39:53.490Z,7.02
2023-02-13T10:43:28.891Z,7.01
2023-02-13T10:47:06.727Z,6.98
2023-02-13T10:50:44.154Z,7.00
2023-02-13T10:54:24.021Z,7.02
2023-02-13T10:58:09.615Z,7.06
2023-02-13T11:01:44.437Z,7.12
2023-02-13T11:05:19.940Z,7.17
2023-02-13T11:08:49.470Z,7.21
2023-02-13T11:12:29.755Z,7.22
2023-02-13T11:16:10.660Z,7.24
2023-02-13T11:19:41.798Z,7.25
2023-02-13T11:23:29.694Z,7.25
2023-02-13T11:27:00.015Z,7.24
2023-02-13T11:30:38.657Z,7.22
2023-02-13T11:34:26.297Z,7.20
2023-02-13T11:38:12.352Z,7.17
2023-02-13T11:41:44.504Z,7.15
2023-02-13T11:45:26.170Z,7.14
2023-02-13T11:49:05.809Z,7.13
2023-02-13T11:52:35.745Z,7.15
2023-02-13T11:56:09.848Z,7.19
2023-02-13T11:59:45.288Z,7.25
2023-02-13T12:03:31.624Z,7.32
2023-02-13T12:07:06.342Z,7.37
2023-02-13T12:10:35.648Z,7.39
2023-02-13T12:14:06.178Z,7.39
2023-02-13T12:17:44.279Z,7.41
2023-02-13T12:21:31.683Z,7.38
2023-02-13T12:25:22.165Z,7.36
2023-02-13T12:29:12.660Z,7.34
2023-02-13T12:32:59.626Z,7.31
2023-02-13T12:36:39.279Z,7.32
2023-02-13T12:40:29.635Z,7.32
2023-02-13T12:44:22.745Z,7.33
2023-02-13T12:48:08.534Z,7.37
2023-02-13T12:51:50.696Z,7.39
2023-02-13T12:55:38.461Z,7.44
2023-02-13T12:59:11.151Z,7.48
2023-02-13T13:03:06.013Z,7.54
2023-02-13T13:06:48.383Z,7.60
2023-02-13T13:10:49.723Z,7.63
2023-02-13T13:14:26.252Z,7.66
2023-02-13T13:18:09.619Z,7.65
2023-02-13T13:21:47.004Z,7.61
2023-02-13T13:25:26.661Z,7.57
2023-02-13T13:28:58.303Z,7.55
2023-02-13T13:32:26.375Z,7.52
2023-02-13T13:36:02.152Z,7.49
2023-02-13T13:39:41.727Z,7.46
2023-02-13T13:43:19.839Z,7.42
2023-02-13T13:46:59.209Z,7.39
2023-02-13T13:50:29.528Z,7.36
2023-02-13T13:54:37.145Z,7.33
2023-02-13T13:58:04.062Z,7.33
2023-02-13T14:01:32.866Z,7.31
2023-02-13T14:05:19.859Z,7.28
2023-02-13T14:09:40.619Z,7.24
2023-02-13T14:13:09.084Z,7.20
2023-02-13T14:16:44.196Z,7.18
2023-02-13T14:20:35.912Z,7.12
2023-02-13T14:24:04.544Z,7.07
2023-02-13T14:27:34.746Z,7.05
2023-02-13T14:31:15.234Z,7.01
2023-02-13T14:34:43.824Z,6.96
2023-02-13T14:38:25.454Z,6.93
2023-02-13T14:42:03.618Z,6.91
2023-02-13T14:45:34.654Z,6.88
2023-02-13T14:49:05.745Z,6.85
2023-02-13T14:52:37.067Z,6.83
2023-02-13T14:56:10.472Z,6.82
2023-02-13T14:59:43.602Z,6.81
2023-02-13T15:03:28.709Z,6.78
2023-02-13T15:06:59.577Z,6.79
2023-02-13T15:10:42.024Z,6.81
2023-02-13T15:14:31.725Z,6.84
2023-02-13T15:18:04.075Z,6.86
2023-02-13T15:21:36.355Z,6.86
2023-02-13T15:25:03.657Z,6.85
2023-02-13T15:28:31.881Z,6.83
2023-02-13T15:32:00.383Z,6.77
2023-02-13T15:35:36.185Z,6.73
2023-02-13T15:39:10.461Z,6.69
2023-02-13T15:42:41.775Z,6.67
2023-02-13T15:46:21.128Z,6.64
2023-02-13T15:49:53.947Z,6.61
2023-02-13T15:53:23.715Z,6.56
2023-02-13T15:56:52.548Z,6.49
2023-02-13T16:00:27.120Z,6.41
2023-02-13T16:04:04.061Z,6.36
2023-02-13T16:07:48.905Z,6.27
2023-02-13T16:11:31.787Z,6.20
2023-02-13T16:15:02.713Z,6.15
2023-02-13T16:18:35.321Z,6.16
2023-02-13T16:22:27.874Z,6.16
2023-02-13T16:25:54.396Z,6.18
2023-02-13T16:29:23.764Z,6.18
2023-02-13T16:32:51.794Z,6.23
2023-02-13T16:36:31.008Z,6.27
2023-02-13T16:40:28.902Z,6.30
2023-02-13T16:43:59.030Z,6.31
2023-02-13T16:47:30.574Z,6.30
2023-02-13T16:51:00.811Z,6.25
2023-02-13T16:54:43.034Z,6.20
2023-02-13T16:58:27.663Z,6.12
2023-02-13T17:02:19.288Z,6.05
2023-02-13T17:05:47.738Z,5.97
2023-02-13T17:09:14.724Z,5.90
2023-02-13T17:12:41.746Z,5.84
2023-02-13T17:16:16.806Z,5.77
2023-02-13T17:19:51.337Z,5.71
2023-02-13T17:23:22.811Z,5.66
2023-02-13T17:26:52.256Z,5.62
2023-02-13T17:30:22.664Z,5.59
2023-02-13T17:33:49.718Z,5.60
2023-02-13T17:37:27.078Z,5.59
2023-02-13T17:40:54.480Z,5.61
2023-02-13T17:44:22.498Z,5.66
2023-02-13T17:47:49.514Z,5.69
2023-02-13T17:51:17.680Z,5.74
2023-02-13T17:54:44.632Z,5.78
2023-02-13T17:58:14.772Z,5.80
2023-02-13T18:01:41.479Z,5.82
2023-02-13T18:05:10.639Z,5.83
2023-02-13T18:08:38.641Z,5.85
2023-02-13T18:12:07.094Z,5.82
2023-02-13T18:15:35.803Z,5.79
2023-02-13T18:19:03.070Z,5.78
2023-02-13T18:22:30.334Z,5.77
2023-02-13T18:26:07.632Z,5.76
2023-02-13T18:29:36.505Z,5.74
2023-02-13T18:33:08.921Z,5.73
2023-02-13T18:36:38.113Z,5.70
2023-02-13T18:40:04.857Z,5.72
2023-02-13T18:43:35.162Z,5.73
2023-02-13T18:47:03.241Z,5.75
2023-02-13T18:50:34.501Z,5.79
2023-02-13T18:54:03.510Z,5.83
2023-02-13T18:57:37.035Z,5.86
2023-02-13T19:01:11.428Z,5.84
2023-02-13T19:04:45.459Z,5.79
2023-02-13T19:08:16.305Z,5.75
2023-02-13T19:11:44.623Z,5.71
2023-02-13T19:15:16.036Z,5.66
2023-02-13T19:18:45.406Z,5.59
2023-02-13T19:22:14.611Z,5.50
2023-02-13T19:25:46.028Z,5.43
2023-02-13T19:29:13.085Z,5.37
2023-02-13T19:32:46.276Z,5.29
2023-02-13T19:36:18.602Z,5.17
2023-02-13T19:39:51.082Z,5.07
2023-02-13T19:43:20.364Z,4.99
2023-02-13T19:46:54.754Z,4.93
2023-02-13T19:50:26.631Z,4.88
2023-02-13T19:54:15.438Z,4.82
2023-02-13T19:57:46.955Z,4.77
2023-02-13T20:01:20.986Z,4.75
2023-02-13T20:04:52.828Z,4.75
2023-02-13T20:08:23.799Z,4.77
2023-02-13T20:11:56.157Z,4.79
2023-02-13T20:15:28.041Z,4.82
2023-02-13T20:19:10.058Z,4.84
2023-02-13T20:22:47.867Z,4.84
2023-02-13T20:26:24.522Z,4.82
2023-02-13T20:30:03.382Z,4.80
2023-02-13T20:33:41.397Z,4.76
2023-02-13T20:37:19.682Z,4.70
2023-02-13T20:40:50.182Z,4.64
2023-02-13T20:44:24.327Z,4.57
2023-02-13T20:47:58.765Z,4.50
2023-02-13T20:51:27.688Z,4.41
2023-02-13T20:55:03.087Z,4.31
2023-02-13T20:58:34.389Z,4.22
2023-02-13T21:02:07.992Z,4.16
2023-02-13T21:05:36.964Z,4.13
2023-02-13T21:09:11.589Z,4.10
2023-02-13T21:12:40.674Z,4.09
2023-02-13T21:16:14.349Z,4.12
2023-02-13T21:19:42.338Z,4.12
2023-02-13T21:23:12.094Z,4.15
2023-02-13T21:26:43.099Z,4.19
2023-02-13T21:30:22.713Z,4.24
2023-02-13T21:33:55.793Z,4.26
2023-02-13T21:37:30.674Z,4.25
2023-02-13T21:41:05.593Z,4.21
2023-02-13T21:44:45.779Z,4.14
2023-02-13T21:48:17.870Z,4.08
2023-02-13T21:51:54.770Z,4.01
2023-02-13T21:55:32.766Z,3.94
2023-02-13T21:59:10.392Z,3.87
2023-02-13T22:02:52.054Z,3.78
2023-02-13T22:06:25.085Z,3.68
2023-02-13T22:09:57.270Z,3.60
2023-02-13T22:13:27.262Z,3.56
2023-02-13T22:16:55.129Z,3.52
2023-02-13T22:20:26.266Z,3.50
2023-02-13T22:23:53.474Z,3.48
2023-02-13T22:27:20.648Z,3.46
2023-02-13T22:30:47.575Z,3.49
2023-02-13T22:34:16.267Z,3.51
2023-02-13T22:37:44.806Z,3.51
2023-02-13T22:41:15.077Z,3.54
2023-02-13T22:44:43.794Z,3.58
2023-02-13T22:48:10.966Z,3.57
2023-02-13T22:51:40.733Z,3.56
2023-02-13T22:55:09.934Z,3.58
2023-02-13T22:58:37.330Z,3.56
2023-02-13T23:02:09.149Z,3.53
2023-02-13T23:05:39.365Z,3.48
2023-02-13T23:09:08.465Z,3.42
2023-02-13T23:12:45.927Z,3.36
2023-02-13T23:16:17.973Z,3.29
2023-02-13T23:19:46.506Z,3.22
2023-02-13T23:23:17.381Z,3.17
2023-02-13T23:26:45.380Z,3.11
2023-02-13T23:30:18.337Z,3.07
2023-02-13T23:33:47.549Z,3.06
2023-02-13T23:37:15.366Z,3.05
2023-02-13T23:40:42.646Z,3.06
2023-02-13T23:44:09.796Z,3.08
2023-02-13T23:47:40.396Z,3.10
2023-02-13T23:51:08.843Z,3.13
2023-02-13T23:54:35.720Z,3.14
2023-02-13T23:58:03.982Z,3.18
